sensor_id;sensor_type;location;lat;lon;timestamp;P1;durP1;ratioP1;P2;durP2;ratioP2
34828;SDS011;21042;47.620;12.188;2022-10-22T00:02:19;9.20;;;2.70;;
34828;SDS011;21042;47.620;12.188;2022-10-22T00:04:46;6.00;;;2.30;;
34828;SDS011;21042;47.620;12.188;2022-10-22T00:07:14;7.85;;;2.40;;
34828;SDS011;21042;47.620;12.188;2022-10-22T00:09:43;8.65;;;3.25;;
34828;SDS011;21042;47.620;12.188;2022-10-22T00:14:37;11.18;;;2.67;;
34828;SDS011;21042;47.620;12.188;2022-10-22T00:17:03;8.20;;;2.50;;
34828;SDS011;21042;47.620;12.188;2022-10-22T00:19:35;9.55;;;2.65;;
34828;SDS011;21042;47.620;12.188;2022-10-22T00:22:02;10.98;;;3.75;;
34828;SDS011;21042;47.620;12.188;2022-10-22T00:24:31;9.95;;;2.97;;
34828;SDS011;21042;47.620;12.188;2022-10-22T00:26:59;7.15;;;2.50;;
34828;SDS011;21042;47.620;12.188;2022-10-22T00:29:27;9.50;;;4.03;;
34828;SDS011;21042;47.620;12.188;2022-10-22T00:31:54;12.57;;;3.63;;
34828;SDS011;21042;47.620;12.188;2022-10-22T00:34:26;15.43;;;3.88;;
34828;SDS011;21042;47.620;12.188;2022-10-22T00:36:52;6.40;;;3.20;;
34828;SDS011;21042;47.620;12.188;2022-10-22T00:39:21;7.70;;;3.33;;
34828;SDS011;21042;47.620;12.188;2022-10-22T00:41:51;11.48;;;4.07;;
34828;SDS011;21042;47.620;12.188;2022-10-22T00:47:23;11.32;;;3.95;;
34828;SDS011;21042;47.620;12.188;2022-10-22T00:49:52;7.75;;;3.03;;
34828;SDS011;21042;47.620;12.188;2022-10-22T00:52:20;8.18;;;3.50;;
34828;SDS011;21042;47.620;12.188;2022-10-22T00:54:47;8.50;;;3.05;;
34828;SDS011;21042;47.620;12.188;2022-10-22T00:57:15;13.35;;;3.25;;
34828;SDS011;21042;47.620;12.188;2022-10-22T00:59:43;8.25;;;3.50;;
34828;SDS011;21042;47.620;12.188;2022-10-22T01:02:10;20.92;;;4.63;;
34828;SDS011;21042;47.620;12.188;2022-10-22T01:04:37;8.90;;;3.55;;
34828;SDS011;21042;47.620;12.188;2022-10-22T01:07:04;12.70;;;4.78;;
34828;SDS011;21042;47.620;12.188;2022-10-22T01:12:20;7.05;;;3.53;;
34828;SDS011;21042;47.620;12.188;2022-10-22T01:15:24;9.60;;;4.32;;
34828;SDS011;21042;47.620;12.188;2022-10-22T01:23:20;9.23;;;3.70;;
34828;SDS011;21042;47.620;12.188;2022-10-22T01:31:42;11.20;;;4.50;;
34828;SDS011;21042;47.620;12.188;2022-10-22T01:34:20;17.92;;;5.63;;
34828;SDS011;21042;47.620;12.188;2022-10-22T01:36:48;14.13;;;5.40;;
34828;SDS011;21042;47.620;12.188;2022-10-22T01:39:17;10.98;;;4.70;;
34828;SDS011;21042;47.620;12.188;2022-10-22T01:41:45;10.48;;;5.25;;
34828;SDS011;21042;47.620;12.188;2022-10-22T01:49:47;11.52;;;4.80;;
34828;SDS011;21042;47.620;12.188;2022-10-22T01:52:31;8.63;;;4.28;;
34828;SDS011;21042;47.620;12.188;2022-10-22T01:55:15;9.73;;;5.00;;
34828;SDS011;21042;47.620;12.188;2022-10-22T02:00:46;9.73;;;4.70;;
34828;SDS011;21042;47.620;12.188;2022-10-22T02:06:44;9.65;;;5.03;;
34828;SDS011;21042;47.620;12.188;2022-10-22T02:09:13;14.18;;;4.75;;
34828;SDS011;21042;47.620;12.188;2022-10-22T02:11:42;10.40;;;4.00;;
34828;SDS011;21042;47.620;12.188;2022-10-22T02:14:10;12.35;;;4.90;;
34828;SDS011;21042;47.620;12.188;2022-10-22T02:16:40;10.98;;;4.45;;
34828;SDS011;21042;47.620;12.188;2022-10-22T02:19:22;10.32;;;4.65;;
34828;SDS011;21042;47.620;12.188;2022-10-22T02:21:55;11.30;;;4.95;;
34828;SDS011;21042;47.620;12.188;2022-10-22T02:24:22;9.18;;;4.35;;
34828;SDS011;21042;47.620;12.188;2022-10-22T02:27:11;8.30;;;4.13;;
34828;SDS011;21042;47.620;12.188;2022-10-22T02:30:06;11.63;;;3.95;;
34828;SDS011;21042;47.620;12.188;2022-10-22T02:32:42;7.93;;;4.05;;
34828;SDS011;21042;47.620;12.188;2022-10-22T02:35:32;10.75;;;5.53;;
34828;SDS011;21042;47.620;12.188;2022-10-22T02:38:00;8.73;;;4.35;;
34828;SDS011;21042;47.620;12.188;2022-10-22T02:40:28;15.63;;;4.80;;
34828;SDS011;21042;47.620;12.188;2022-10-22T02:42:56;10.48;;;4.10;;
34828;SDS011;21042;47.620;12.188;2022-10-22T02:45:23;13.20;;;4.60;;
34828;SDS011;21042;47.620;12.188;2022-10-22T02:47:50;7.25;;;4.18;;
34828;SDS011;21042;47.620;12.188;2022-10-22T02:50:17;10.48;;;3.63;;
34828;SDS011;21042;47.620;12.188;2022-10-22T02:52:44;10.13;;;4.13;;
34828;SDS011;21042;47.620;12.188;2022-10-22T02:55:10;10.35;;;3.75;;
34828;SDS011;21042;47.620;12.188;2022-10-22T02:57:37;9.57;;;3.85;;
34828;SDS011;21042;47.620;12.188;2022-10-22T03:00:05;9.90;;;4.05;;
34828;SDS011;21042;47.620;12.188;2022-10-22T03:02:33;8.20;;;3.38;;
34828;SDS011;21042;47.620;12.188;2022-10-22T03:05:00;8.88;;;3.88;;
34828;SDS011;21042;47.620;12.188;2022-10-22T03:07:27;9.00;;;4.00;;
34828;SDS011;21042;47.620;12.188;2022-10-22T03:09:54;13.48;;;4.10;;
34828;SDS011;21042;47.620;12.188;2022-10-22T03:12:20;9.73;;;4.20;;
34828;SDS011;21042;47.620;12.188;2022-10-22T03:14:47;10.63;;;3.95;;
34828;SDS011;21042;47.620;12.188;2022-10-22T03:17:14;15.60;;;3.92;;
34828;SDS011;21042;47.620;12.188;2022-10-22T03:19:41;10.77;;;3.92;;
34828;SDS011;21042;47.620;12.188;2022-10-22T03:22:12;9.23;;;3.20;;
34828;SDS011;21042;47.620;12.188;2022-10-22T03:24:45;9.25;;;4.30;;
34828;SDS011;21042;47.620;12.188;2022-10-22T03:27:16;10.23;;;4.15;;
34828;SDS011;21042;47.620;12.188;2022-10-22T03:29:45;6.60;;;3.58;;
34828;SDS011;21042;47.620;12.188;2022-10-22T03:32:12;13.57;;;3.95;;
34828;SDS011;21042;47.620;12.188;2022-10-22T03:34:39;10.20;;;3.95;;
34828;SDS011;21042;47.620;12.188;2022-10-22T03:37:06;30.15;;;11.15;;
34828;SDS011;21042;47.620;12.188;2022-10-22T03:39:33;19.65;;;10.23;;
34828;SDS011;21042;47.620;12.188;2022-10-22T03:42:01;19.33;;;5.57;;
34828;SDS011;21042;47.620;12.188;2022-10-22T03:44:29;11.55;;;5.40;;
34828;SDS011;21042;47.620;12.188;2022-10-22T03:46:56;13.02;;;5.30;;
34828;SDS011;21042;47.620;12.188;2022-10-22T03:49:27;7.68;;;3.28;;
34828;SDS011;21042;47.620;12.188;2022-10-22T03:51:54;12.80;;;3.72;;
34828;SDS011;21042;47.620;12.188;2022-10-22T03:54:21;12.52;;;4.43;;
34828;SDS011;21042;47.620;12.188;2022-10-22T03:56:48;9.02;;;4.50;;
34828;SDS011;21042;47.620;12.188;2022-10-22T03:59:14;9.20;;;3.88;;
34828;SDS011;21042;47.620;12.188;2022-10-22T04:01:41;7.10;;;3.90;;
34828;SDS011;21042;47.620;12.188;2022-10-22T04:04:08;7.65;;;4.60;;
34828;SDS011;21042;47.620;12.188;2022-10-22T04:06:34;8.60;;;3.58;;
34828;SDS011;21042;47.620;12.188;2022-10-22T04:09:01;12.60;;;4.43;;
34828;SDS011;21042;47.620;12.188;2022-10-22T04:11:28;7.45;;;3.85;;
34828;SDS011;21042;47.620;12.188;2022-10-22T04:13:55;8.80;;;4.25;;
34828;SDS011;21042;47.620;12.188;2022-10-22T04:16:22;7.47;;;3.80;;
34828;SDS011;21042;47.620;12.188;2022-10-22T04:18:53;9.27;;;3.60;;
34828;SDS011;21042;47.620;12.188;2022-10-22T04:21:20;6.10;;;3.95;;
34828;SDS011;21042;47.620;12.188;2022-10-22T04:23:48;7.63;;;2.85;;
34828;SDS011;21042;47.620;12.188;2022-10-22T04:26:16;5.80;;;3.30;;
34828;SDS011;21042;47.620;12.188;2022-10-22T04:28:44;11.68;;;3.72;;
34828;SDS011;21042;47.620;12.188;2022-10-22T04:31:12;14.43;;;3.90;;
34828;SDS011;21042;47.620;12.188;2022-10-22T04:33:41;9.23;;;4.03;;
34828;SDS011;21042;47.620;12.188;2022-10-22T04:36:09;7.90;;;4.22;;
34828;SDS011;21042;47.620;12.188;2022-10-22T04:38:44;8.82;;;4.03;;
34828;SDS011;21042;47.620;12.188;2022-10-22T04:41:13;6.50;;;3.50;;
34828;SDS011;21042;47.620;12.188;2022-10-22T04:43:41;6.95;;;2.97;;
34828;SDS011;21042;47.620;12.188;2022-10-22T04:46:10;9.05;;;3.45;;
34828;SDS011;21042;47.620;12.188;2022-10-22T04:48:38;10.38;;;4.60;;
34828;SDS011;21042;47.620;12.188;2022-10-22T04:51:07;11.95;;;4.00;;
34828;SDS011;21042;47.620;12.188;2022-10-22T04:53:37;9.70;;;3.63;;
34828;SDS011;21042;47.620;12.188;2022-10-22T04:56:08;8.38;;;3.47;;
34828;SDS011;21042;47.620;12.188;2022-10-22T04:58:42;10.05;;;2.72;;
34828;SDS011;21042;47.620;12.188;2022-10-22T05:01:10;6.53;;;2.88;;
34828;SDS011;21042;47.620;12.188;2022-10-22T05:03:39;4.60;;;2.38;;
34828;SDS011;21042;47.620;12.188;2022-10-22T05:08:34;7.93;;;3.28;;
34828;SDS011;21042;47.620;12.188;2022-10-22T05:11:00;7.90;;;3.42;;
34828;SDS011;21042;47.620;12.188;2022-10-22T05:13:42;4.43;;;2.20;;
34828;SDS011;21042;47.620;12.188;2022-10-22T05:16:09;5.13;;;2.03;;
34828;SDS011;21042;47.620;12.188;2022-10-22T05:18:36;8.55;;;2.50;;
34828;SDS011;21042;47.620;12.188;2022-10-22T05:21:08;6.97;;;2.70;;
34828;SDS011;21042;47.620;12.188;2022-10-22T05:23:37;6.07;;;2.60;;
34828;SDS011;21042;47.620;12.188;2022-10-22T05:26:04;4.18;;;1.70;;
34828;SDS011;21042;47.620;12.188;2022-10-22T05:28:32;3.53;;;1.75;;
34828;SDS011;21042;47.620;12.188;2022-10-22T05:31:00;2.55;;;1.60;;
34828;SDS011;21042;47.620;12.188;2022-10-22T05:33:28;4.35;;;2.10;;
34828;SDS011;21042;47.620;12.188;2022-10-22T05:35:56;3.83;;;1.70;;
34828;SDS011;21042;47.620;12.188;2022-10-22T05:38:23;6.25;;;2.42;;
34828;SDS011;21042;47.620;12.188;2022-10-22T05:43:34;10.50;;;5.30;;
34828;SDS011;21042;47.620;12.188;2022-10-22T05:46:03;7.18;;;3.88;;
34828;SDS011;21042;47.620;12.188;2022-10-22T05:48:32;6.20;;;3.88;;
34828;SDS011;21042;47.620;12.188;2022-10-22T05:51:03;11.82;;;5.72;;
34828;SDS011;21042;47.620;12.188;2022-10-22T05:53:38;5.32;;;3.28;;
34828;SDS011;21042;47.620;12.188;2022-10-22T05:56:08;3.70;;;2.33;;
34828;SDS011;21042;47.620;12.188;2022-10-22T05:58:38;4.88;;;2.90;;
34828;SDS011;21042;47.620;12.188;2022-10-22T06:01:06;10.32;;;5.22;;
34828;SDS011;21042;47.620;12.188;2022-10-22T06:03:36;12.05;;;7.03;;
34828;SDS011;21042;47.620;12.188;2022-10-22T06:08:51;9.63;;;5.38;;
34828;SDS011;21042;47.620;12.188;2022-10-22T06:11:20;8.65;;;4.55;;
34828;SDS011;21042;47.620;12.188;2022-10-22T06:13:48;11.95;;;5.35;;
34828;SDS011;21042;47.620;12.188;2022-10-22T06:16:16;4.13;;;3.20;;
34828;SDS011;21042;47.620;12.188;2022-10-22T06:18:42;5.60;;;3.78;;
34828;SDS011;21042;47.620;12.188;2022-10-22T06:21:10;8.43;;;4.38;;
34828;SDS011;21042;47.620;12.188;2022-10-22T06:23:38;12.98;;;5.10;;
34828;SDS011;21042;47.620;12.188;2022-10-22T06:26:06;8.88;;;3.83;;
34828;SDS011;21042;47.620;12.188;2022-10-22T06:28:34;6.90;;;3.47;;
34828;SDS011;21042;47.620;12.188;2022-10-22T06:33:29;6.00;;;3.78;;
34828;SDS011;21042;47.620;12.188;2022-10-22T06:36:07;9.65;;;4.70;;
34828;SDS011;21042;47.620;12.188;2022-10-22T06:38:39;9.70;;;5.78;;
34828;SDS011;21042;47.620;12.188;2022-10-22T06:41:07;11.57;;;6.32;;
34828;SDS011;21042;47.620;12.188;2022-10-22T06:43:36;10.85;;;6.55;;
34828;SDS011;21042;47.620;12.188;2022-10-22T06:46:04;9.75;;;5.35;;
34828;SDS011;21042;47.620;12.188;2022-10-22T06:48:34;10.65;;;4.60;;
34828;SDS011;21042;47.620;12.188;2022-10-22T06:51:03;10.70;;;5.38;;
34828;SDS011;21042;47.620;12.188;2022-10-22T06:53:35;13.25;;;8.02;;
34828;SDS011;21042;47.620;12.188;2022-10-22T06:56:06;12.02;;;6.85;;
34828;SDS011;21042;47.620;12.188;2022-10-22T06:58:38;17.70;;;11.45;;
34828;SDS011;21042;47.620;12.188;2022-10-22T07:01:06;13.18;;;8.68;;
34828;SDS011;21042;47.620;12.188;2022-10-22T07:03:34;12.32;;;7.22;;
34828;SDS011;21042;47.620;12.188;2022-10-22T07:08:29;9.77;;;4.80;;
34828;SDS011;21042;47.620;12.188;2022-10-22T07:11:04;8.50;;;4.82;;
34828;SDS011;21042;47.620;12.188;2022-10-22T07:13:36;7.78;;;4.60;;
34828;SDS011;21042;47.620;12.188;2022-10-22T07:16:03;8.82;;;4.78;;
34828;SDS011;21042;47.620;12.188;2022-10-22T07:18:31;11.38;;;4.57;;
34828;SDS011;21042;47.620;12.188;2022-10-22T07:20:59;7.70;;;4.47;;
34828;SDS011;21042;47.620;12.188;2022-10-22T07:25:53;10.43;;;4.85;;
34828;SDS011;21042;47.620;12.188;2022-10-22T07:28:25;7.78;;;4.93;;
34828;SDS011;21042;47.620;12.188;2022-10-22T07:30:53;7.30;;;4.45;;
34828;SDS011;21042;47.620;12.188;2022-10-22T07:33:19;9.05;;;5.63;;
34828;SDS011;21042;47.620;12.188;2022-10-22T07:35:46;8.55;;;5.60;;
34828;SDS011;21042;47.620;12.188;2022-10-22T07:38:13;9.18;;;5.13;;
34828;SDS011;21042;47.620;12.188;2022-10-22T07:40:39;10.15;;;4.65;;
34828;SDS011;21042;47.620;12.188;2022-10-22T07:43:06;8.75;;;5.32;;
34828;SDS011;21042;47.620;12.188;2022-10-22T07:45:33;11.27;;;6.07;;
34828;SDS011;21042;47.620;12.188;2022-10-22T07:47:59;11.55;;;5.72;;
34828;SDS011;21042;47.620;12.188;2022-10-22T07:50:27;15.43;;;6.00;;
34828;SDS011;21042;47.620;12.188;2022-10-22T07:52:54;12.30;;;5.32;;
34828;SDS011;21042;47.620;12.188;2022-10-22T07:55:23;15.00;;;6.88;;
34828;SDS011;21042;47.620;12.188;2022-10-22T07:57:50;12.05;;;7.07;;
34828;SDS011;21042;47.620;12.188;2022-10-22T08:00:17;13.35;;;7.75;;
34828;SDS011;21042;47.620;12.188;2022-10-22T08:06:01;12.35;;;6.30;;
34828;SDS011;21042;47.620;12.188;2022-10-22T08:08:28;13.13;;;7.25;;
34828;SDS011;21042;47.620;12.188;2022-10-22T08:10:56;9.55;;;6.07;;
34828;SDS011;21042;47.620;12.188;2022-10-22T08:13:24;12.52;;;5.75;;
34828;SDS011;21042;47.620;12.188;2022-10-22T08:15:52;15.88;;;5.82;;
34828;SDS011;21042;47.620;12.188;2022-10-22T08:18:22;12.77;;;5.30;;
34828;SDS011;21042;47.620;12.188;2022-10-22T08:23:17;25.58;;;11.93;;
34828;SDS011;21042;47.620;12.188;2022-10-22T08:25:43;7.85;;;3.45;;
34828;SDS011;21042;47.620;12.188;2022-10-22T08:28:11;4.22;;;2.35;;
34828;SDS011;21042;47.620;12.188;2022-10-22T08:30:37;4.57;;;2.83;;
34828;SDS011;21042;47.620;12.188;2022-10-22T08:33:05;4.55;;;2.40;;
34828;SDS011;21042;47.620;12.188;2022-10-22T08:35:32;3.65;;;2.38;;
34828;SDS011;21042;47.620;12.188;2022-10-22T08:37:59;6.30;;;1.75;;
34828;SDS011;21042;47.620;12.188;2022-10-22T08:40:33;3.97;;;2.13;;
34828;SDS011;21042;47.620;12.188;2022-10-22T08:48:59;3.47;;;1.67;;
34828;SDS011;21042;47.620;12.188;2022-10-22T08:51:35;4.15;;;1.83;;
34828;SDS011;21042;47.620;12.188;2022-10-22T08:57:16;4.85;;;2.38;;
34828;SDS011;21042;47.620;12.188;2022-10-22T09:02:27;4.10;;;2.67;;
34828;SDS011;21042;47.620;12.188;2022-10-22T09:08:10;3.92;;;2.35;;
34828;SDS011;21042;47.620;12.188;2022-10-22T09:10:39;7.18;;;2.47;;
34828;SDS011;21042;47.620;12.188;2022-10-22T09:13:13;7.55;;;3.08;;
34828;SDS011;21042;47.620;12.188;2022-10-22T09:15:54;7.07;;;3.35;;
34828;SDS011;21042;47.620;12.188;2022-10-22T09:21:13;5.13;;;3.60;;
34828;SDS011;21042;47.620;12.188;2022-10-22T09:26:21;7.05;;;3.75;;
34828;SDS011;21042;47.620;12.188;2022-10-22T09:28:48;9.23;;;5.45;;
34828;SDS011;21042;47.620;12.188;2022-10-22T09:31:16;5.57;;;4.00;;
34828;SDS011;21042;47.620;12.188;2022-10-22T09:33:43;11.10;;;4.72;;
34828;SDS011;21042;47.620;12.188;2022-10-22T09:36:15;10.80;;;4.15;;
34828;SDS011;21042;47.620;12.188;2022-10-22T09:38:51;6.47;;;4.00;;
34828;SDS011;21042;47.620;12.188;2022-10-22T09:41:19;6.45;;;4.30;;
34828;SDS011;21042;47.620;12.188;2022-10-22T09:43:50;7.13;;;4.15;;
34828;SDS011;21042;47.620;12.188;2022-10-22T09:46:23;6.30;;;3.75;;
34828;SDS011;21042;47.620;12.188;2022-10-22T09:52:01;8.32;;;4.45;;
34828;SDS011;21042;47.620;12.188;2022-10-22T09:54:25;7.68;;;5.32;;
34828;SDS011;21042;47.620;12.188;2022-10-22T09:59:42;7.93;;;5.38;;
34828;SDS011;21042;47.620;12.188;2022-10-22T10:02:14;8.02;;;4.20;;
34828;SDS011;21042;47.620;12.188;2022-10-22T10:05:04;7.63;;;4.35;;
34828;SDS011;21042;47.620;12.188;2022-10-22T10:07:32;9.07;;;4.75;;
34828;SDS011;21042;47.620;12.188;2022-10-22T10:10:01;8.45;;;5.22;;
34828;SDS011;21042;47.620;12.188;2022-10-22T10:12:46;12.60;;;6.28;;
34828;SDS011;21042;47.620;12.188;2022-10-22T10:15:23;17.58;;;6.15;;
34828;SDS011;21042;47.620;12.188;2022-10-22T10:23:45;10.93;;;5.63;;
34828;SDS011;21042;47.620;12.188;2022-10-22T10:29:23;9.80;;;4.07;;
34828;SDS011;21042;47.620;12.188;2022-10-22T10:34:45;8.52;;;4.60;;
34828;SDS011;21042;47.620;12.188;2022-10-22T10:37:33;7.72;;;4.00;;
34828;SDS011;21042;47.620;12.188;2022-10-22T10:40:27;17.45;;;7.35;;
34828;SDS011;21042;47.620;12.188;2022-10-22T10:43:21;13.35;;;6.10;;
34828;SDS011;21042;47.620;12.188;2022-10-22T10:57:03;7.82;;;4.20;;
34828;SDS011;21042;47.620;12.188;2022-10-22T11:02:55;8.52;;;4.57;;
34828;SDS011;21042;47.620;12.188;2022-10-22T11:06:26;10.68;;;4.78;;
34828;SDS011;21042;47.620;12.188;2022-10-22T11:13:51;6.63;;;4.00;;
34828;SDS011;21042;47.620;12.188;2022-10-22T11:19:29;6.38;;;5.03;;
34828;SDS011;21042;47.620;12.188;2022-10-22T11:22:36;7.53;;;4.65;;
34828;SDS011;21042;47.620;12.188;2022-10-22T11:25:44;10.05;;;5.57;;
34828;SDS011;21042;47.620;12.188;2022-10-22T11:28:13;6.93;;;4.20;;
34828;SDS011;21042;47.620;12.188;2022-10-22T11:30:52;7.25;;;4.25;;
34828;SDS011;21042;47.620;12.188;2022-10-22T11:33:32;8.25;;;4.50;;
34828;SDS011;21042;47.620;12.188;2022-10-22T11:36:35;5.90;;;3.83;;
34828;SDS011;21042;47.620;12.188;2022-10-22T11:39:03;7.45;;;4.10;;
34828;SDS011;21042;47.620;12.188;2022-10-22T11:41:31;5.43;;;3.50;;
34828;SDS011;21042;47.620;12.188;2022-10-22T11:44:10;6.38;;;3.47;;
34828;SDS011;21042;47.620;12.188;2022-10-22T11:49:41;5.75;;;3.33;;
34828;SDS011;21042;47.620;12.188;2022-10-22T11:54:55;10.05;;;3.50;;
34828;SDS011;21042;47.620;12.188;2022-10-22T11:57:35;5.82;;;3.00;;
34828;SDS011;21042;47.620;12.188;2022-10-22T12:00:08;5.05;;;3.13;;
34828;SDS011;21042;47.620;12.188;2022-10-22T12:05:44;7.63;;;2.90;;
34828;SDS011;21042;47.620;12.188;2022-10-22T12:10:53;4.72;;;2.50;;
34828;SDS011;21042;47.620;12.188;2022-10-22T12:13:25;3.95;;;2.42;;
34828;SDS011;21042;47.620;12.188;2022-10-22T12:15:58;3.53;;;1.98;;
34828;SDS011;21042;47.620;12.188;2022-10-22T12:18:32;4.50;;;2.47;;
34828;SDS011;21042;47.620;12.188;2022-10-22T12:23:34;4.25;;;2.22;;
34828;SDS011;21042;47.620;12.188;2022-10-22T12:26:03;5.00;;;2.00;;
34828;SDS011;21042;47.620;12.188;2022-10-22T12:28:36;5.15;;;2.38;;
34828;SDS011;21042;47.620;12.188;2022-10-22T12:31:13;3.97;;;1.70;;
34828;SDS011;21042;47.620;12.188;2022-10-22T12:33:41;2.58;;;1.80;;
34828;SDS011;21042;47.620;12.188;2022-10-22T12:36:15;4.03;;;2.03;;
34828;SDS011;21042;47.620;12.188;2022-10-22T12:38:46;4.30;;;2.00;;
34828;SDS011;21042;47.620;12.188;2022-10-22T12:41:13;7.65;;;3.20;;
34828;SDS011;21042;47.620;12.188;2022-10-22T12:43:40;4.60;;;2.70;;
34828;SDS011;21042;47.620;12.188;2022-10-22T12:46:10;3.72;;;2.20;;
34828;SDS011;21042;47.620;12.188;2022-10-22T12:48:39;3.78;;;2.38;;
34828;SDS011;21042;47.620;12.188;2022-10-22T12:51:12;3.65;;;2.33;;
34828;SDS011;21042;47.620;12.188;2022-10-22T12:53:46;5.07;;;2.30;;
34828;SDS011;21042;47.620;12.188;2022-10-22T12:56:25;3.17;;;2.13;;
34828;SDS011;21042;47.620;12.188;2022-10-22T12:58:55;4.97;;;2.72;;
34828;SDS011;21042;47.620;12.188;2022-10-22T13:01:25;5.55;;;2.80;;
34828;SDS011;21042;47.620;12.188;2022-10-22T13:07:36;3.15;;;1.52;;
34828;SDS011;21042;47.620;12.188;2022-10-22T13:09:55;3.88;;;1.73;;
34828;SDS011;21042;47.620;12.188;2022-10-22T13:12:25;2.90;;;1.83;;
34828;SDS011;21042;47.620;12.188;2022-10-22T13:14:53;3.22;;;1.95;;
34828;SDS011;21042;47.620;12.188;2022-10-22T13:17:35;6.15;;;2.25;;
34828;SDS011;21042;47.620;12.188;2022-10-22T13:25:21;2.80;;;1.50;;
34828;SDS011;21042;47.620;12.188;2022-10-22T13:30:36;3.25;;;1.15;;
34828;SDS011;21042;47.620;12.188;2022-10-22T13:33:05;4.20;;;1.35;;
34828;SDS011;21042;47.620;12.188;2022-10-22T13:35:48;2.70;;;1.23;;
34828;SDS011;21042;47.620;12.188;2022-10-22T13:38:17;1.98;;;1.20;;
34828;SDS011;21042;47.620;12.188;2022-10-22T13:40:46;2.33;;;1.23;;
34828;SDS011;21042;47.620;12.188;2022-10-22T13:43:13;2.00;;;1.35;;
34828;SDS011;21042;47.620;12.188;2022-10-22T13:45:41;5.68;;;1.50;;
34828;SDS011;21042;47.620;12.188;2022-10-22T13:48:12;1.63;;;1.23;;
34828;SDS011;21042;47.620;12.188;2022-10-22T13:50:44;2.75;;;1.45;;
34828;SDS011;21042;47.620;12.188;2022-10-22T13:53:14;1.98;;;1.27;;
34828;SDS011;21042;47.620;12.188;2022-10-22T13:55:44;2.47;;;1.10;;
34828;SDS011;21042;47.620;12.188;2022-10-22T13:58:12;3.65;;;1.45;;
34828;SDS011;21042;47.620;12.188;2022-10-22T14:00:48;2.53;;;1.33;;
34828;SDS011;21042;47.620;12.188;2022-10-22T14:03:22;1.63;;;1.40;;
34828;SDS011;21042;47.620;12.188;2022-10-22T14:05:51;2.30;;;1.75;;
34828;SDS011;21042;47.620;12.188;2022-10-22T14:08:19;3.08;;;1.55;;
34828;SDS011;21042;47.620;12.188;2022-10-22T14:10:47;2.15;;;1.40;;
34828;SDS011;21042;47.620;12.188;2022-10-22T14:13:15;1.83;;;1.10;;
34828;SDS011;21042;47.620;12.188;2022-10-22T14:15:44;1.98;;;1.20;;
34828;SDS011;21042;47.620;12.188;2022-10-22T14:18:14;3.90;;;1.25;;
34828;SDS011;21042;47.620;12.188;2022-10-22T14:20:50;1.20;;;1.10;;
34828;SDS011;21042;47.620;12.188;2022-10-22T14:23:19;1.92;;;1.60;;
34828;SDS011;21042;47.620;12.188;2022-10-22T14:25:48;1.98;;;0.90;;
34828;SDS011;21042;47.620;12.188;2022-10-22T14:28:17;1.25;;;1.08;;
34828;SDS011;21042;47.620;12.188;2022-10-22T14:30:44;1.67;;;1.05;;
34828;SDS011;21042;47.620;12.188;2022-10-22T14:33:22;3.78;;;1.52;;
34828;SDS011;21042;47.620;12.188;2022-10-22T14:35:57;1.65;;;1.40;;
34828;SDS011;21042;47.620;12.188;2022-10-22T14:38:25;1.40;;;1.27;;
34828;SDS011;21042;47.620;12.188;2022-10-22T14:40:52;4.97;;;1.50;;
34828;SDS011;21042;47.620;12.188;2022-10-22T14:43:20;4.13;;;2.30;;
34828;SDS011;21042;47.620;12.188;2022-10-22T14:45:48;2.17;;;1.60;;
34828;SDS011;21042;47.620;12.188;2022-10-22T14:50:48;2.65;;;1.60;;
34828;SDS011;21042;47.620;12.188;2022-10-22T14:53:15;5.07;;;1.73;;
34828;SDS011;21042;47.620;12.188;2022-10-22T14:55:42;2.53;;;1.63;;
34828;SDS011;21042;47.620;12.188;2022-10-22T14:58:12;4.55;;;2.10;;
34828;SDS011;21042;47.620;12.188;2022-10-22T15:00:39;2.42;;;1.48;;
34828;SDS011;21042;47.620;12.188;2022-10-22T15:03:07;5.65;;;1.88;;
34828;SDS011;21042;47.620;12.188;2022-10-22T15:05:35;3.95;;;2.28;;
34828;SDS011;21042;47.620;12.188;2022-10-22T15:08:07;2.72;;;1.70;;
34828;SDS011;21042;47.620;12.188;2022-10-22T15:10:33;3.33;;;1.80;;
34828;SDS011;21042;47.620;12.188;2022-10-22T15:13:00;2.83;;;1.98;;
34828;SDS011;21042;47.620;12.188;2022-10-22T15:15:27;4.50;;;1.95;;
34828;SDS011;21042;47.620;12.188;2022-10-22T15:18:03;5.22;;;2.22;;
34828;SDS011;21042;47.620;12.188;2022-10-22T15:20:29;1.83;;;1.50;;
34828;SDS011;21042;47.620;12.188;2022-10-22T15:22:56;2.10;;;1.60;;
34828;SDS011;21042;47.620;12.188;2022-10-22T15:25:23;3.45;;;2.40;;
34828;SDS011;21042;47.620;12.188;2022-10-22T15:27:49;3.38;;;2.38;;
34828;SDS011;21042;47.620;12.188;2022-10-22T15:30:18;8.90;;;2.35;;
34828;SDS011;21042;47.620;12.188;2022-10-22T15:35:12;3.15;;;1.95;;
34828;SDS011;21042;47.620;12.188;2022-10-22T15:37:39;4.60;;;3.05;;
34828;SDS011;21042;47.620;12.188;2022-10-22T15:40:06;5.55;;;3.53;;
34828;SDS011;21042;47.620;12.188;2022-10-22T15:42:33;3.55;;;2.70;;
34828;SDS011;21042;47.620;12.188;2022-10-22T15:45:00;6.20;;;3.53;;
34828;SDS011;21042;47.620;12.188;2022-10-22T15:47:27;6.97;;;3.88;;
34828;SDS011;21042;47.620;12.188;2022-10-22T15:49:56;6.53;;;3.80;;
34828;SDS011;21042;47.620;12.188;2022-10-22T15:52:23;4.13;;;2.70;;
34828;SDS011;21042;47.620;12.188;2022-10-22T15:54:49;9.00;;;3.00;;
34828;SDS011;21042;47.620;12.188;2022-10-22T15:57:16;4.13;;;2.15;;
34828;SDS011;21042;47.620;12.188;2022-10-22T15:59:43;3.25;;;2.00;;
34828;SDS011;21042;47.620;12.188;2022-10-22T16:02:10;5.28;;;2.70;;
34828;SDS011;21042;47.620;12.188;2022-10-22T16:04:37;3.03;;;2.38;;
34828;SDS011;21042;47.620;12.188;2022-10-22T16:09:31;5.65;;;3.08;;
34828;SDS011;21042;47.620;12.188;2022-10-22T16:11:57;9.63;;;2.88;;
34828;SDS011;21042;47.620;12.188;2022-10-22T16:14:24;3.28;;;2.10;;
34828;SDS011;21042;47.620;12.188;2022-10-22T16:16:51;5.20;;;1.98;;
34828;SDS011;21042;47.620;12.188;2022-10-22T16:19:21;6.43;;;2.50;;
34828;SDS011;21042;47.620;12.188;2022-10-22T16:21:49;8.13;;;3.85;;
34828;SDS011;21042;47.620;12.188;2022-10-22T16:24:17;10.35;;;6.97;;
34828;SDS011;21042;47.620;12.188;2022-10-22T16:29:11;21.17;;;6.70;;
34828;SDS011;21042;47.620;12.188;2022-10-22T16:31:39;11.57;;;6.32;;
34828;SDS011;21042;47.620;12.188;2022-10-22T16:34:08;6.63;;;3.58;;
34828;SDS011;21042;47.620;12.188;2022-10-22T16:36:35;10.55;;;4.38;;
34828;SDS011;21042;47.620;12.188;2022-10-22T16:39:03;7.13;;;4.30;;
34828;SDS011;21042;47.620;12.188;2022-10-22T16:41:31;9.20;;;3.97;;
34828;SDS011;21042;47.620;12.188;2022-10-22T16:44:02;10.63;;;4.80;;
34828;SDS011;21042;47.620;12.188;2022-10-22T16:46:31;10.35;;;6.05;;
34828;SDS011;21042;47.620;12.188;2022-10-22T16:48:58;11.90;;;5.22;;
34828;SDS011;21042;47.620;12.188;2022-10-22T16:51:26;9.55;;;5.88;;
34828;SDS011;21042;47.620;12.188;2022-10-22T16:53:53;13.23;;;8.07;;
34828;SDS011;21042;47.620;12.188;2022-10-22T16:56:22;10.98;;;4.65;;
34828;SDS011;21042;47.620;12.188;2022-10-22T16:58:53;7.40;;;4.13;;
34828;SDS011;21042;47.620;12.188;2022-10-22T17:01:22;10.20;;;4.50;;
34828;SDS011;21042;47.620;12.188;2022-10-22T17:03:55;8.60;;;4.85;;
34828;SDS011;21042;47.620;12.188;2022-10-22T17:06:24;18.05;;;7.25;;
34828;SDS011;21042;47.620;12.188;2022-10-22T17:08:51;17.80;;;8.60;;
34828;SDS011;21042;47.620;12.188;2022-10-22T17:13:46;8.23;;;3.67;;
34828;SDS011;21042;47.620;12.188;2022-10-22T17:16:15;7.63;;;3.38;;
34828;SDS011;21042;47.620;12.188;2022-10-22T17:18:43;13.32;;;6.50;;
34828;SDS011;21042;47.620;12.188;2022-10-22T17:21:16;34.53;;;12.48;;